createdAt,value
2023-04-24T00:02:18.552Z,99685.53
2023-04-24T00:04:45.971Z,99700.81
2023-04-24T00:07:13.954Z,99672.00
2023-04-24T00:09:40.760Z,99673.31
2023-04-24T00:12:07.553Z,99676.63
2023-04-24T00:14:34.099Z,99676.59
2023-04-24T00:17:01.001Z,99659.78
2023-04-24T00:19:27.612Z,99657.34
2023-04-24T00:21:54.856Z,99677.28
2023-04-24T00:24:21.782Z,99673.81
2023-04-24T00:26:48.364Z,99670.00
2023-04-24T00:29:14.861Z,99669.81
2023-04-24T00:31:41.414Z,99676.91
2023-04-24T00:34:08.721Z,99665.56
2023-04-24T00:36:35.243Z,99667.38
2023-04-24T00:39:01.808Z,99675.66
2023-04-24T00:41:28.409Z,99672.44
2023-04-24T00:43:54.921Z,99678.56
2023-04-24T00:46:22.769Z,99654.22
2023-04-24T00:48:49.279Z,99667.34
2023-04-24T00:51:15.854Z,99677.41
2023-04-24T00:53:42.426Z,99661.78
2023-04-24T00:56:08.893Z,99678.53
2023-04-24T00:58:35.613Z,99674.31
2023-04-24T01:01:03.562Z,99685.72
2023-04-24T01:03:32.924Z,99666.06
2023-04-24T01:05:59.828Z,99670.56
2023-04-24T01:08:29.070Z,99670.38
2023-04-24T01:10:57.818Z,99662.69
2023-04-24T01:13:24.800Z,99676.81
2023-04-24T01:15:51.393Z,99683.84
2023-04-24T01:18:17.910Z,99687.22
2023-04-24T01:20:46.459Z,99669.28
2023-04-24T01:23:12.947Z,99671.47
2023-04-24T01:25:40.153Z,99673.78
2023-04-24T01:28:06.757Z,99671.97
2023-04-24T01:30:34.566Z,99671.09
2023-04-24T01:33:01.786Z,99673.69
2023-04-24T01:35:28.741Z,99688.25
2023-04-24T01:37:55.519Z,99666.34
2023-04-24T01:40:22.213Z,99672.91
2023-04-24T01:42:48.910Z,99681.97
2023-04-24T01:45:15.539Z,99688.22
2023-04-24T01:47:42.793Z,99674.88
2023-04-24T01:50:10.112Z,99684.31
2023-04-24T01:52:37.107Z,99689.47
2023-04-24T01:55:05.065Z,99687.69
2023-04-24T01:57:32.324Z,99678.94
2023-04-24T01:59:58.949Z,99681.00
2023-04-24T02:02:28.416Z,99682.59
2023-04-24T02:04:55.402Z,99679.88
2023-04-24T02:07:21.899Z,99683.59
2023-04-24T02:09:48.591Z,99683.34
2023-04-24T02:12:16.447Z,99691.38
2023-04-24T02:14:43.429Z,99685.13
2023-04-24T02:17:10.369Z,99699.56
2023-04-24T02:19:36.884Z,99689.34
2023-04-24T02:22:03.353Z,99693.94
2023-04-24T02:24:29.841Z,99700.50
2023-04-24T02:26:56.738Z,99695.22
2023-04-24T02:29:23.760Z,99687.78
2023-04-24T02:31:50.256Z,99699.06
2023-04-24T02:34:17.385Z,99697.34
2023-04-24T02:36:43.916Z,99684.88
2023-04-24T02:39:10.498Z,99692.81
2023-04-24T02:41:37.035Z,99700.28
2023-04-24T02:44:03.544Z,99693.38
2023-04-24T02:46:30.083Z,99690.84
2023-04-24T02:48:56.557Z,99693.19
2023-04-24T02:51:23.030Z,99695.06
2023-04-24T02:53:49.469Z,99698.91
2023-04-24T02:56:15.964Z,99702.94
2023-04-24T02:58:43.323Z,99701.88
2023-04-24T03:01:11.088Z,99701.72
2023-04-24T03:03:39.277Z,99715.38
2023-04-24T03:06:09.366Z,99708.00
2023-04-24T03:08:36.322Z,99710.50
2023-04-24T03:11:02.958Z,99708.28
2023-04-24T03:13:29.355Z,99722.31
2023-04-24T03:15:55.917Z,99714.16
2023-04-24T03:18:22.458Z,99721.13
2023-04-24T03:20:48.989Z,99719.50
2023-04-24T03:23:16.172Z,99721.91
2023-04-24T03:25:43.786Z,99719.22
2023-04-24T03:28:10.306Z,99714.03
2023-04-24T03:30:36.784Z,99722.88
2023-04-24T03:33:03.480Z,99727.53
2023-04-24T03:35:30.002Z,99717.63
2023-04-24T03:37:56.588Z,99718.00
2023-04-24T03:40:23.068Z,99712.88
2023-04-24T03:42:49.494Z,99718.25
2023-04-24T03:45:16.009Z,99722.91
2023-04-24T03:47:42.489Z,99710.91
2023-04-24T03:50:10.671Z,99723.13
2023-04-24T03:52:38.257Z,99714.13
2023-04-24T03:55:05.096Z,99722.47
2023-04-24T03:57:31.620Z,99710.41
2023-04-24T03:59:58.085Z,99716.66
2023-04-24T04:02:24.624Z,99725.19
2023-04-24T04:04:51.232Z,99718.66
2023-04-24T04:07:20.477Z,99732.41
2023-04-24T04:09:46.950Z,99707.72
2023-04-24T04:12:13.787Z,99719.00
2023-04-24T04:14:40.366Z,99728.38
2023-04-24T04:17:06.827Z,99732.41
2023-04-24T04:19:33.325Z,99726.31
2023-04-24T04:22:00.087Z,99735.47
2023-04-24T04:24:27.490Z,99724.34
2023-04-24T04:26:57.705Z,99746.63
2023-04-24T04:29:24.830Z,99741.81
2023-04-24T04:31:51.676Z,99735.56
2023-04-24T04:34:18.183Z,99735.06
2023-04-24T04:36:45.257Z,99742.13
2023-04-24T04:39:11.924Z,99738.81
2023-04-24T04:41:41.367Z,99736.03
2023-04-24T04:44:09.753Z,99737.69
2023-04-24T04:46:38.334Z,99758.66
2023-04-24T04:49:05.628Z,99752.88
2023-04-24T04:51:32.961Z,99757.44
2023-04-24T04:53:59.435Z,99749.19
2023-04-24T04:56:25.959Z,99746.50
2023-04-24T04:58:52.611Z,99744.06
2023-04-24T05:01:19.090Z,99748.91
2023-04-24T05:03:45.837Z,99749.88
2023-04-24T05:06:12.441Z,99743.44
2023-04-24T05:08:38.974Z,99745.66
2023-04-24T05:11:05.865Z,99751.75
2023-04-24T05:13:39.775Z,99756.50
2023-04-24T05:16:07.920Z,99732.16
2023-04-24T05:18:34.560Z,99746.06
2023-04-24T05:21:01.003Z,99741.72
2023-04-24T05:23:27.502Z,99745.66
2023-04-24T05:25:53.981Z,99752.22
2023-04-24T05:28:20.958Z,99746.91
2023-04-24T05:30:47.493Z,99769.00
2023-04-24T05:33:14.992Z,99745.66
2023-04-24T05:35:46.650Z,99745.94
2023-04-24T05:38:13.787Z,99745.38
2023-04-24T05:40:41.050Z,99755.78
2023-04-24T05:43:07.558Z,99757.72
2023-04-24T05:45:36.484Z,99752.16
2023-04-24T05:48:03.965Z,99761.38
2023-04-24T05:50:30.589Z,99804.94
2023-04-24T05:52:59.155Z,99781.44
2023-04-24T05:55:26.609Z,99793.78
2023-04-24T05:57:53.096Z,99791.47
2023-04-24T06:00:20.920Z,99772.94
2023-04-24T06:02:48.287Z,99787.59
2023-04-24T06:05:15.938Z,99788.97
2023-04-24T06:07:42.910Z,99776.34
2023-04-24T06:10:10.197Z,99768.16
2023-04-24T06:12:37.516Z,99769.38
2023-04-24T06:15:04.858Z,99772.44
2023-04-24T06:17:31.945Z,99775.19
2023-04-24T06:19:58.438Z,99785.75
2023-04-24T06:22:24.889Z,99776.34
2023-04-24T06:24:51.324Z,99760.78
2023-04-24T06:27:17.827Z,99769.44
2023-04-24T06:29:44.617Z,99772.16
2023-04-24T06:32:11.222Z,99781.13
2023-04-24T06:34:37.739Z,99773.31
2023-04-24T06:37:04.189Z,99780.66
2023-04-24T06:39:30.652Z,99779.69
2023-04-24T06:41:57.092Z,99786.22
2023-04-24T06:44:23.529Z,99774.75
2023-04-24T06:46:50.027Z,99775.41
2023-04-24T06:49:17.064Z,99776.59
2023-04-24T06:51:43.834Z,99778.75
2023-04-24T06:54:10.400Z,99782.81
2023-04-24T06:56:36.938Z,99776.44
2023-04-24T06:59:03.419Z,99783.44
2023-04-24T07:01:29.961Z,99775.66
2023-04-24T07:03:56.702Z,99778.91
2023-04-24T07:06:25.390Z,99792.00
2023-04-24T07:08:51.935Z,99770.94
2023-04-24T07:11:18.433Z,99764.53
2023-04-24T07:13:45.232Z,99756.94
2023-04-24T07:16:11.895Z,99764.81
2023-04-24T07:18:40.695Z,99765.88
2023-04-24T07:21:08.155Z,99771.13
2023-04-24T07:23:34.580Z,99779.69
2023-04-24T07:26:01.340Z,99782.97
2023-04-24T07:28:27.761Z,99776.13
2023-04-24T07:30:55.145Z,99789.44
2023-04-24T07:33:22.046Z,99776.34
2023-04-24T07:35:48.887Z,99779.91
2023-04-24T07:38:15.527Z,99777.06
2023-04-24T07:40:42.031Z,99779.41
2023-04-24T07:43:08.534Z,99779.00
2023-04-24T07:45:38.090Z,99801.97
2023-04-24T07:48:04.900Z,99775.78
2023-04-24T07:50:31.600Z,99793.34
2023-04-24T07:52:58.348Z,99789.19
2023-04-24T07:55:27.918Z,99785.69
2023-04-24T07:57:55.081Z,99800.75
2023-04-24T08:00:22.052Z,99800.03
2023-04-24T08:02:48.820Z,99786.06
2023-04-24T08:05:15.862Z,99794.41
2023-04-24T08:07:43.598Z,99810.56
2023-04-24T08:10:13.026Z,99796.47
2023-04-24T08:12:39.553Z,99793.56
2023-04-24T08:15:06.725Z,99823.34
2023-04-24T08:17:36.103Z,99811.84
2023-04-24T08:20:06.399Z,99820.06
2023-04-24T08:22:33.012Z,99818.50
2023-04-24T08:25:01.540Z,99826.56
2023-04-24T08:27:28.244Z,99829.13
2023-04-24T08:29:55.758Z,99833.47
2023-04-24T08:32:22.291Z,99842.66
2023-04-24T08:34:49.803Z,99837.59
2023-04-24T08:37:16.727Z,99850.56
2023-04-24T08:39:43.357Z,99857.63
2023-04-24T08:42:10.228Z,99856.75
2023-04-24T08:44:37.173Z,99865.50
2023-04-24T08:47:04.480Z,99857.16
2023-04-24T08:49:31.881Z,99861.84
2023-04-24T08:51:58.479Z,99883.31
2023-04-24T08:54:26.212Z,99858.78
2023-04-24T08:56:55.317Z,99875.81
2023-04-24T08:59:22.935Z,99871.84
2023-04-24T09:01:50.696Z,99871.78
2023-04-24T09:04:21.025Z,99885.59
2023-04-24T09:06:49.704Z,99887.19
2023-04-24T09:09:18.032Z,99899.84
2023-04-24T09:11:45.286Z,99909.22
2023-04-24T09:14:12.583Z,99909.97
2023-04-24T09:16:39.145Z,99913.78
2023-04-24T09:19:05.643Z,99920.50
2023-04-24T09:21:35.843Z,99933.81
2023-04-24T09:24:04.790Z,99945.28
2023-04-24T09:26:33.551Z,99943.94
2023-04-24T09:29:00.320Z,99960.91
2023-04-24T09:31:29.373Z,99958.75
2023-04-24T09:34:08.301Z,99965.47
2023-04-24T09:36:39.465Z,99966.50
2023-04-24T09:39:16.316Z,99973.94
2023-04-24T09:41:57.690Z,99980.25
2023-04-24T09:44:27.010Z,99990.44
2023-04-24T09:47:01.631Z,99992.03
2023-04-24T09:49:30.025Z,100001.63
2023-04-24T09:52:07.968Z,100007.53
2023-04-24T09:54:34.790Z,100019.13
2023-04-24T09:57:01.510Z,100035.63
2023-04-24T09:59:28.539Z,100049.84
2023-04-24T10:01:55.827Z,100050.34
2023-04-24T10:04:25.491Z,100055.47
2023-04-24T10:06:53.927Z,100068.25
2023-04-24T10:09:22.678Z,100076.81
2023-04-24T10:11:51.591Z,100084.41
2023-04-24T10:14:21.527Z,100083.66
2023-04-24T10:16:48.818Z,100092.38
2023-04-24T10:19:17.004Z,100112.22
2023-04-24T10:21:47.524Z,100098.66
2023-04-24T10:24:18.881Z,100114.75
2023-04-24T10:26:46.902Z,100118.03
2023-04-24T10:29:16.347Z,100129.06
2023-04-24T10:31:46.414Z,100131.44
2023-04-24T10:34:15.504Z,100141.66
2023-04-24T10:36:46.969Z,100137.78
2023-04-24T10:39:16.043Z,100140.50
2023-04-24T10:41:42.701Z,100151.16
2023-04-24T10:44:14.389Z,100149.16
2023-04-24T10:46:46.076Z,100166.19
2023-04-24T10:49:12.669Z,100159.81
2023-04-24T10:51:50.857Z,100185.75
2023-04-24T10:54:26.706Z,100179.03
2023-04-24T10:56:53.976Z,100185.34
2023-04-24T10:59:36.132Z,100195.25
2023-04-24T11:02:02.734Z,100178.19
2023-04-24T11:04:34.275Z,100191.28
2023-04-24T11:07:00.980Z,100199.59
2023-04-24T11:09:30.879Z,100192.84
2023-04-24T11:12:11.981Z,100209.38
2023-04-24T11:14:57.593Z,100203.84
2023-04-24T11:17:35.506Z,100218.94
2023-04-24T11:20:26.843Z,100206.31
2023-04-24T11:22:55.877Z,100221.72
2023-04-24T11:25:26.727Z,100221.66
2023-04-24T11:28:05.144Z,100224.28
2023-04-24T11:30:32.536Z,100234.22
2023-04-24T11:33:04.509Z,100232.91
2023-04-24T11:35:36.130Z,100235.16
2023-04-24T11:40:38.965Z,100236.72
2023-04-24T11:43:08.284Z,100236.97
2023-04-24T11:45:35.311Z,100229.97
2023-04-24T11:48:03.966Z,100236.22
2023-04-24T11:50:30.628Z,100243.31
2023-04-24T11:52:57.601Z,100242.41
2023-04-24T11:55:29.416Z,100245.91
2023-04-24T11:57:58.198Z,100248.66
2023-04-24T12:00:27.794Z,100252.00
2023-04-24T12:03:09.424Z,100265.19
2023-04-24T12:05:37.175Z,100268.56
2023-04-24T12:08:03.912Z,100263.72
2023-04-24T12:10:32.325Z,100265.03
2023-04-24T12:12:59.937Z,100259.91
2023-04-24T12:15:27.351Z,100251.41
2023-04-24T12:17:55.193Z,100270.38
2023-04-24T12:20:41.569Z,100277.41
2023-04-24T12:23:08.039Z,100270.25
2023-04-24T12:25:35.479Z,100283.78
2023-04-24T12:28:04.801Z,100295.88
2023-04-24T12:30:33.702Z,100289.88
2023-04-24T12:33:01.560Z,100282.72
2023-04-24T12:35:30.193Z,100298.25
2023-04-24T12:37:56.818Z,100305.38
2023-04-24T12:40:26.612Z,100308.53
2023-04-24T12:42:53.213Z,100311.53
2023-04-24T12:45:20.304Z,100331.78
2023-04-24T12:47:47.462Z,100319.53
2023-04-24T12:50:15.891Z,100322.47
2023-04-24T12:52:43.624Z,100328.75
2023-04-24T12:55:10.745Z,100318.97
2023-04-24T12:57:38.699Z,100334.88
2023-04-24T13:00:06.958Z,100331.56
2023-04-24T13:02:35.127Z,100329.09
2023-04-24T13:05:02.431Z,100327.47
2023-04-24T13:07:29.265Z,100330.16
2023-04-24T13:09:56.941Z,100341.56
2023-04-24T13:12:24.998Z,100351.88
2023-04-24T13:14:51.577Z,100367.22
2023-04-24T13:17:18.081Z,100346.22
2023-04-24T13:19:45.835Z,100352.78
2023-04-24T13:22:13.312Z,100353.50
2023-04-24T13:24:43.220Z,100352.72
2023-04-24T13:27:10.566Z,100360.63
2023-04-24T13:29:38.073Z,100357.94
2023-04-24T13:32:04.638Z,100353.91
2023-04-24T13:34:31.173Z,100372.31
2023-04-24T13:36:59.545Z,100361.22
2023-04-24T13:39:27.099Z,100364.69
2023-04-24T13:41:54.376Z,100367.38
2023-04-24T13:44:21.702Z,100361.75
2023-04-24T13:46:49.943Z,100380.56
2023-04-24T13:49:16.846Z,100376.06
2023-04-24T13:51:43.876Z,100361.41
2023-04-24T13:54:10.711Z,100365.69
2023-04-24T13:56:37.205Z,100370.06
2023-04-24T13:59:03.786Z,100361.63
2023-04-24T14:01:30.263Z,100366.34
2023-04-24T14:03:57.329Z,100362.75
2023-04-24T14:06:24.539Z,100368.16
2023-04-24T14:08:51.580Z,100357.44
2023-04-24T14:11:19.285Z,100364.47
2023-04-24T14:13:46.923Z,100362.81
2023-04-24T14:16:14.144Z,100356.59
2023-04-24T14:18:40.939Z,100370.34
2023-04-24T14:21:07.703Z,100361.00
2023-04-24T14:23:34.429Z,100360.69
2023-04-24T14:26:01.179Z,100377.50
2023-04-24T14:28:27.642Z,100373.91
2023-04-24T14:30:54.362Z,100374.72
2023-04-24T14:33:20.965Z,100379.84
2023-04-24T14:35:47.467Z,100391.94
2023-04-24T14:38:14.048Z,100378.97
2023-04-24T14:43:10.917Z,100401.69
2023-04-24T14:45:38.832Z,100416.63
2023-04-24T14:48:05.520Z,100412.78
2023-04-24T14:50:32.163Z,100415.19
2023-04-24T14:52:58.778Z,100419.41
2023-04-24T14:55:26.933Z,100424.25
2023-04-24T14:57:54.001Z,100411.78
2023-04-24T15:00:21.285Z,100415.00
2023-04-24T15:02:47.970Z,100418.75
2023-04-24T15:05:14.940Z,100426.59
2023-04-24T15:07:42.696Z,100428.56
2023-04-24T15:10:09.589Z,100416.25
2023-04-24T15:12:36.279Z,100417.56
2023-04-24T15:15:02.913Z,100410.00
2023-04-24T15:17:29.488Z,100425.28
2023-04-24T15:19:56.052Z,100418.50
2023-04-24T15:22:22.549Z,100411.88
2023-04-24T15:24:48.989Z,100415.78
2023-04-24T15:27:15.649Z,100424.56
2023-04-24T15:29:42.605Z,100409.94
2023-04-24T15:32:10.268Z,100413.28
2023-04-24T15:34:37.175Z,100422.91
2023-04-24T15:37:03.603Z,100418.34
2023-04-24T15:39:30.110Z,100415.63
2023-04-24T15:41:57.554Z,100428.03
2023-04-24T15:44:24.225Z,100426.81
2023-04-24T15:46:52.211Z,100423.66
2023-04-24T15:49:19.605Z,100424.47
2023-04-24T15:51:46.187Z,100444.34
2023-04-24T15:54:12.854Z,100428.88
2023-04-24T15:56:39.332Z,100424.88
2023-04-24T15:59:06.212Z,100429.84
2023-04-24T16:01:33.682Z,100447.75
2023-04-24T16:04:00.501Z,100442.31
2023-04-24T16:06:27.835Z,100440.19
2023-04-24T16:08:55.502Z,100441.03
2023-04-24T16:11:23.873Z,100443.66
2023-04-24T16:13:50.916Z,100440.47
2023-04-24T16:16:17.686Z,100431.63
2023-04-24T16:18:44.229Z,100436.41
2023-04-24T16:21:10.772Z,100433.75
2023-04-24T16:23:37.256Z,100440.34
2023-04-24T16:26:03.835Z,100441.84
2023-04-24T16:28:30.805Z,100444.00
2023-04-24T16:30:57.738Z,100437.38
2023-04-24T16:33:26.357Z,100442.16
2023-04-24T16:35:55.989Z,100463.13
2023-04-24T16:38:24.403Z,100456.84
2023-04-24T16:40:50.940Z,100454.72
2023-04-24T16:43:17.704Z,100455.38
2023-04-24T16:45:44.205Z,100456.50
2023-04-24T16:48:11.409Z,100455.06
2023-04-24T16:50:38.192Z,100465.00
2023-04-24T16:53:05.320Z,100469.81
2023-04-24T16:55:31.867Z,100473.88
2023-04-24T16:57:58.320Z,100481.06
2023-04-24T17:00:24.817Z,100476.22
2023-04-24T17:02:51.409Z,100479.50
2023-04-24T17:05:20.284Z,100471.28
2023-04-24T17:07:46.934Z,100484.47
2023-04-24T17:10:14.510Z,100495.50
2023-04-24T17:12:41.302Z,100486.09
2023-04-24T17:15:08.081Z,100472.69
2023-04-24T17:17:34.568Z,100475.47
2023-04-24T17:20:05.697Z,100473.97
2023-04-24T17:22:38.254Z,100473.25
2023-04-24T17:25:05.030Z,100476.34
2023-04-24T17:27:31.477Z,100470.00
2023-04-24T17:29:59.023Z,100480.25
2023-04-24T17:32:25.614Z,100473.28
2023-04-24T17:34:52.179Z,100477.56
2023-04-24T17:37:22.933Z,100481.50
2023-04-24T17:39:50.148Z,100474.03
2023-04-24T17:42:17.145Z,100476.78
2023-04-24T17:44:43.594Z,100478.34
2023-04-24T17:47:10.457Z,100479.16
2023-04-24T17:49:38.648Z,100483.09
2023-04-24T17:52:05.914Z,100477.97
2023-04-24T17:54:32.737Z,100488.44
2023-04-24T17:56:59.279Z,100490.41
2023-04-24T17:59:26.510Z,100480.09
2023-04-24T18:01:53.388Z,100484.50
2023-04-24T18:04:20.221Z,100488.91
2023-04-24T18:06:46.766Z,100493.66
2023-04-24T18:09:15.734Z,100494.50
2023-04-24T18:11:42.816Z,100496.91
2023-04-24T18:14:09.312Z,100491.44
2023-04-24T18:16:36.089Z,100503.63
2023-04-24T18:19:02.771Z,100504.03
2023-04-24T18:21:29.381Z,100518.31
2023-04-24T18:23:55.917Z,100515.50
2023-04-24T18:26:22.472Z,100528.59
2023-04-24T18:28:49.299Z,100529.41
2023-04-24T18:31:16.099Z,100528.63
2023-04-24T18:33:42.923Z,100529.81
2023-04-24T18:36:09.382Z,100533.81
2023-04-24T18:38:36.789Z,100534.59
2023-04-24T18:41:03.391Z,100526.69
2023-04-24T18:43:29.852Z,100533.03
2023-04-24T18:45:56.423Z,100538.56
2023-04-24T18:48:22.894Z,100540.53
2023-04-24T18:50:49.412Z,100536.59
2023-04-24T18:53:18.111Z,100540.53
2023-04-24T18:55:44.725Z,100540.13
2023-04-24T18:58:11.252Z,100535.78
2023-04-24T19:00:38.491Z,100547.25
2023-04-24T19:03:05.659Z,100541.31
2023-04-24T19:05:32.327Z,100556.34
2023-04-24T19:07:58.799Z,100552.78
2023-04-24T19:10:25.370Z,100554.00
2023-04-24T19:12:56.410Z,100555.56
2023-04-24T19:15:24.351Z,100561.88
2023-04-24T19:17:51.765Z,100565.81
2023-04-24T19:20:21.515Z,100566.22
2023-04-24T19:22:48.085Z,100574.50
2023-04-24T19:25:15.423Z,100570.56
2023-04-24T19:27:41.927Z,100570.56
2023-04-24T19:30:08.861Z,100577.66
2023-04-24T19:32:35.450Z,100584.75
2023-04-24T19:35:02.066Z,100582.81
2023-04-24T19:37:28.593Z,100580.41
2023-04-24T19:39:55.289Z,100573.72
2023-04-24T19:42:31.764Z,100583.19
2023-04-24T19:45:08.664Z,100583.59
2023-04-24T19:47:35.240Z,100583.56
2023-04-24T19:50:01.870Z,100582.81
2023-04-24T19:52:28.389Z,100583.97
2023-04-24T19:54:54.899Z,100580.03
2023-04-24T19:57:21.373Z,100582.41
2023-04-24T19:59:47.864Z,100578.84
2023-04-24T20:02:14.437Z,100592.25
2023-04-24T20:04:41.831Z,100584.38
2023-04-24T20:07:08.855Z,100574.50
2023-04-24T20:09:35.483Z,100580.81
2023-04-24T20:12:02.804Z,100574.50
2023-04-24T20:14:29.318Z,100580.78
2023-04-24T20:16:55.815Z,100570.53
2023-04-24T20:19:22.306Z,100581.59
2023-04-24T20:21:48.878Z,100578.44
2023-04-24T20:24:16.271Z,100586.72
2023-04-24T20:26:43.208Z,100578.44
2023-04-24T20:29:10.594Z,100578.81
2023-04-24T20:31:37.546Z,100583.09
2023-04-24T20:34:05.622Z,100586.31
2023-04-24T20:36:33.692Z,100583.94
2023-04-24T20:39:01.413Z,100589.03
2023-04-24T20:41:27.904Z,100581.16
2023-04-24T20:43:54.461Z,100586.66
2023-04-24T20:46:21.758Z,100586.66
2023-04-24T20:48:48.414Z,100588.25
2023-04-24T20:51:15.102Z,100584.31
2023-04-24T20:53:41.557Z,100590.19
2023-04-24T20:56:08.903Z,100588.22
2023-04-24T20:58:35.370Z,100586.25
2023-04-24T21:01:01.860Z,100590.19
2023-04-24T21:03:28.528Z,100577.16
2023-04-24T21:05:55.230Z,100583.06
2023-04-24T21:08:22.145Z,100586.19
2023-04-24T21:10:48.611Z,100584.63
2023-04-24T21:13:15.038Z,100585.81
2023-04-24T21:15:41.529Z,100592.13
2023-04-24T21:18:08.061Z,100588.13
2023-04-24T21:20:34.912Z,100591.69
2023-04-24T21:23:01.463Z,100586.19
2023-04-24T21:25:28.285Z,100592.47
2023-04-24T21:27:55.812Z,100590.06
2023-04-24T21:30:22.530Z,100590.03
2023-04-24T21:32:49.213Z,100595.53
2023-04-24T21:35:15.807Z,100590.81
2023-04-24T21:37:43.085Z,100590.00
2023-04-24T21:40:11.472Z,100586.44
2023-04-24T21:42:38.866Z,100586.44
2023-04-24T21:45:06.169Z,100592.31
2023-04-24T21:47:32.660Z,100590.38
2023-04-24T21:49:59.168Z,100587.63
2023-04-24T21:52:25.613Z,100591.16
2023-04-24T21:54:52.136Z,100588.38
2023-04-24T21:57:18.854Z,100588.00
2023-04-24T21:59:45.674Z,100584.03
2023-04-24T22:02:12.470Z,100588.75
2023-04-24T22:04:39.339Z,100577.31
2023-04-24T22:07:06.407Z,100589.53
2023-04-24T22:09:32.859Z,100592.66
2023-04-24T22:11:59.420Z,100590.75
2023-04-24T22:14:26.753Z,100580.44
2023-04-24T22:16:57.089Z,100583.97
2023-04-24T22:19:26.086Z,100586.34
2023-04-24T22:21:52.618Z,100594.56
2023-04-24T22:24:19.279Z,100588.63
2023-04-24T22:26:45.907Z,100587.00
2023-04-24T22:29:12.856Z,100586.63
2023-04-24T22:31:39.466Z,100586.63
2023-04-24T22:34:06.066Z,100594.44
2023-04-24T22:36:33.868Z,100584.59
2023-04-24T22:39:00.576Z,100587.69
2023-04-24T22:41:27.115Z,100589.69
2023-04-24T22:43:53.746Z,100588.47
2023-04-24T22:46:20.265Z,100583.31
2023-04-24T22:48:49.220Z,100579.41
2023-04-24T22:51:17.296Z,100588.44
2023-04-24T22:53:43.739Z,100592.75
2023-04-24T22:56:10.498Z,100583.31
2023-04-24T22:58:36.975Z,100586.34
2023-04-24T23:01:04.227Z,100578.84
2023-04-24T23:03:31.695Z,100582.78
2023-04-24T23:05:58.320Z,100578.50
2023-04-24T23:08:24.800Z,100583.97
2023-04-24T23:10:51.258Z,100582.38
2023-04-24T23:13:17.875Z,100576.84
2023-04-24T23:15:44.611Z,100578.41
2023-04-24T23:18:11.616Z,100573.75
2023-04-24T23:20:38.936Z,100580.16
2023-04-24T23:23:05.567Z,100574.59
2023-04-24T23:25:32.932Z,100577.75
2023-04-24T23:27:59.619Z,100580.56
2023-04-24T23:30:26.123Z,100581.38
2023-04-24T23:32:52.681Z,100580.97
2023-04-24T23:35:19.183Z,100580.63
2023-04-24T23:37:45.647Z,100575.88
2023-04-24T23:40:12.353Z,100577.03
2023-04-24T23:42:38.813Z,100574.34
2023-04-24T23:45:05.764Z,100581.09
2023-04-24T23:47:32.277Z,100578.34
2023-04-24T23:49:58.830Z,100577.22
2023-04-24T23:52:25.355Z,100574.44
2023-04-24T23:54:51.890Z,100576.06
2023-04-24T23:57:18.595Z,100569.78
2023-04-24T23:59:45.826Z,100573.72
